Terminal Aerodrome Forecast
Issued by NWS

Home | Current Version | Previous Version | Graphics & Text | Print | Product List | Glossary On
Versions: 1 2 3 4 5 6 7 8 9 10 11 12 13 14 15 16 17 18 19 20 21 22
000
FTUS43 KFGF 240400 AAB
TAFBJI
TAF AMD
KBJI 240442Z 2405/2424 29016KT P6SM -FZDZ OVC003
     FM241100 31013KT P6SM -SN OVC003=

USA.gov is the U.S. government's official web portal to all federal, state and local government web resources and services.